sensor_id;sensor_type;location;lat;lon;timestamp;P1;durP1;ratioP1;P2;durP2;ratioP2
82032;SDS011;71595;52.180;4.512;2024-01-07T00:00:57;7.13;;;4.50;;
82032;SDS011;71595;52.180;4.512;2024-01-07T00:03:23;7.32;;;3.90;;
82032;SDS011;71595;52.180;4.512;2024-01-07T00:05:48;7.18;;;3.90;;
82032;SDS011;71595;52.180;4.512;2024-01-07T00:08:13;8.77;;;4.20;;
82032;SDS011;71595;52.180;4.512;2024-01-07T00:10:39;7.10;;;4.68;;
82032;SDS011;71595;52.180;4.512;2024-01-07T00:13:04;8.63;;;4.90;;
82032;SDS011;71595;52.180;4.512;2024-01-07T00:15:29;6.95;;;4.55;;
82032;SDS011;71595;52.180;4.512;2024-01-07T00:17:56;7.80;;;4.63;;
82032;SDS011;71595;52.180;4.512;2024-01-07T00:20:21;7.50;;;4.80;;
82032;SDS011;71595;52.180;4.512;2024-01-07T00:22:47;8.52;;;4.68;;
82032;SDS011;71595;52.180;4.512;2024-01-07T00:25:12;8.20;;;4.32;;
82032;SDS011;71595;52.180;4.512;2024-01-07T00:27:37;6.68;;;4.63;;
82032;SDS011;71595;52.180;4.512;2024-01-07T00:30:03;7.43;;;4.15;;
82032;SDS011;71595;52.180;4.512;2024-01-07T00:32:29;6.70;;;4.47;;
82032;SDS011;71595;52.180;4.512;2024-01-07T00:34:54;7.80;;;4.18;;
82032;SDS011;71595;52.180;4.512;2024-01-07T00:37:19;7.50;;;4.65;;
82032;SDS011;71595;52.180;4.512;2024-01-07T00:39:45;7.63;;;4.55;;
82032;SDS011;71595;52.180;4.512;2024-01-07T00:42:11;8.65;;;4.55;;
82032;SDS011;71595;52.180;4.512;2024-01-07T00:44:37;7.32;;;4.90;;
82032;SDS011;71595;52.180;4.512;2024-01-07T00:47:02;8.35;;;4.82;;
82032;SDS011;71595;52.180;4.512;2024-01-07T00:49:28;7.20;;;4.20;;
82032;SDS011;71595;52.180;4.512;2024-01-07T00:51:53;7.40;;;4.68;;
82032;SDS011;71595;52.180;4.512;2024-01-07T00:54:18;7.72;;;4.72;;
82032;SDS011;71595;52.180;4.512;2024-01-07T00:56:45;7.97;;;4.50;;
82032;SDS011;71595;52.180;4.512;2024-01-07T00:59:10;8.32;;;4.32;;
82032;SDS011;71595;52.180;4.512;2024-01-07T01:01:36;6.68;;;4.10;;
82032;SDS011;71595;52.180;4.512;2024-01-07T01:04:01;6.63;;;4.07;;
82032;SDS011;71595;52.180;4.512;2024-01-07T01:06:27;8.00;;;3.97;;
82032;SDS011;71595;52.180;4.512;2024-01-07T01:08:52;7.30;;;4.55;;
82032;SDS011;71595;52.180;4.512;2024-01-07T01:11:17;6.47;;;4.00;;
82032;SDS011;71595;52.180;4.512;2024-01-07T01:13:43;7.88;;;4.70;;
82032;SDS011;71595;52.180;4.512;2024-01-07T01:16:08;7.95;;;5.15;;
82032;SDS011;71595;52.180;4.512;2024-01-07T01:18:33;8.00;;;4.85;;
82032;SDS011;71595;52.180;4.512;2024-01-07T01:20:59;8.07;;;4.53;;
82032;SDS011;71595;52.180;4.512;2024-01-07T01:23:24;9.43;;;4.97;;
82032;SDS011;71595;52.180;4.512;2024-01-07T01:25:49;8.38;;;4.85;;
82032;SDS011;71595;52.180;4.512;2024-01-07T01:28:15;7.20;;;4.60;;
82032;SDS011;71595;52.180;4.512;2024-01-07T01:30:40;9.10;;;4.72;;
82032;SDS011;71595;52.180;4.512;2024-01-07T01:33:06;8.65;;;4.65;;
82032;SDS011;71595;52.180;4.512;2024-01-07T01:35:31;8.63;;;5.07;;
82032;SDS011;71595;52.180;4.512;2024-01-07T01:37:56;7.60;;;4.65;;
82032;SDS011;71595;52.180;4.512;2024-01-07T01:40:22;8.27;;;4.93;;
82032;SDS011;71595;52.180;4.512;2024-01-07T01:42:47;8.68;;;4.63;;
82032;SDS011;71595;52.180;4.512;2024-01-07T01:45:13;9.73;;;4.90;;
82032;SDS011;71595;52.180;4.512;2024-01-07T01:47:39;9.07;;;5.07;;
82032;SDS011;71595;52.180;4.512;2024-01-07T01:50:05;7.03;;;4.38;;
82032;SDS011;71595;52.180;4.512;2024-01-07T01:54:57;10.35;;;5.28;;
82032;SDS011;71595;52.180;4.512;2024-01-07T01:57:24;11.50;;;4.90;;
82032;SDS011;71595;52.180;4.512;2024-01-07T01:59:53;8.93;;;5.03;;
82032;SDS011;71595;52.180;4.512;2024-01-07T02:02:20;9.73;;;5.35;;
82032;SDS011;71595;52.180;4.512;2024-01-07T02:04:46;7.82;;;4.85;;
82032;SDS011;71595;52.180;4.512;2024-01-07T02:07:11;9.35;;;5.13;;
82032;SDS011;71595;52.180;4.512;2024-01-07T02:09:37;9.00;;;5.00;;
82032;SDS011;71595;52.180;4.512;2024-01-07T02:12:03;8.00;;;5.38;;
82032;SDS011;71595;52.180;4.512;2024-01-07T02:14:29;8.85;;;4.80;;
82032;SDS011;71595;52.180;4.512;2024-01-07T02:16:55;10.02;;;5.25;;
82032;SDS011;71595;52.180;4.512;2024-01-07T02:19:20;9.73;;;5.63;;
82032;SDS011;71595;52.180;4.512;2024-01-07T02:21:46;10.35;;;5.18;;
82032;SDS011;71595;52.180;4.512;2024-01-07T02:24:15;9.63;;;5.80;;
82032;SDS011;71595;52.180;4.512;2024-01-07T02:26:41;8.52;;;4.88;;
82032;SDS011;71595;52.180;4.512;2024-01-07T02:29:06;8.88;;;5.05;;
82032;SDS011;71595;52.180;4.512;2024-01-07T02:31:31;9.60;;;5.82;;
82032;SDS011;71595;52.180;4.512;2024-01-07T02:33:57;8.32;;;5.00;;
82032;SDS011;71595;52.180;4.512;2024-01-07T02:36:22;10.38;;;5.75;;
82032;SDS011;71595;52.180;4.512;2024-01-07T02:38:47;10.02;;;4.88;;
82032;SDS011;71595;52.180;4.512;2024-01-07T02:41:13;8.93;;;5.68;;
82032;SDS011;71595;52.180;4.512;2024-01-07T02:43:38;8.32;;;5.13;;
82032;SDS011;71595;52.180;4.512;2024-01-07T02:46:03;10.00;;;5.53;;
82032;SDS011;71595;52.180;4.512;2024-01-07T02:48:29;11.23;;;5.50;;
82032;SDS011;71595;52.180;4.512;2024-01-07T02:50:55;9.20;;;5.57;;
82032;SDS011;71595;52.180;4.512;2024-01-07T02:53:21;9.32;;;5.32;;
82032;SDS011;71595;52.180;4.512;2024-01-07T02:55:46;8.10;;;5.03;;
82032;SDS011;71595;52.180;4.512;2024-01-07T02:58:11;9.63;;;5.00;;
82032;SDS011;71595;52.180;4.512;2024-01-07T03:00:37;8.75;;;5.32;;
82032;SDS011;71595;52.180;4.512;2024-01-07T03:03:02;8.13;;;4.78;;
82032;SDS011;71595;52.180;4.512;2024-01-07T03:05:28;6.88;;;4.43;;
82032;SDS011;71595;52.180;4.512;2024-01-07T03:07:57;6.95;;;4.53;;
82032;SDS011;71595;52.180;4.512;2024-01-07T03:10:23;9.25;;;5.18;;
82032;SDS011;71595;52.180;4.512;2024-01-07T03:12:48;8.63;;;4.93;;
82032;SDS011;71595;52.180;4.512;2024-01-07T03:15:14;9.20;;;5.20;;
82032;SDS011;71595;52.180;4.512;2024-01-07T03:17:39;7.78;;;4.68;;
82032;SDS011;71595;52.180;4.512;2024-01-07T03:20:04;8.75;;;5.13;;
82032;SDS011;71595;52.180;4.512;2024-01-07T03:22:31;7.78;;;4.80;;
82032;SDS011;71595;52.180;4.512;2024-01-07T03:24:56;10.55;;;5.43;;
82032;SDS011;71595;52.180;4.512;2024-01-07T03:27:21;7.60;;;5.15;;
82032;SDS011;71595;52.180;4.512;2024-01-07T03:29:47;8.40;;;5.00;;
82032;SDS011;71595;52.180;4.512;2024-01-07T03:32:12;7.93;;;4.53;;
82032;SDS011;71595;52.180;4.512;2024-01-07T03:34:38;8.32;;;5.38;;
82032;SDS011;71595;52.180;4.512;2024-01-07T03:37:04;7.43;;;4.78;;
82032;SDS011;71595;52.180;4.512;2024-01-07T03:39:32;6.85;;;4.47;;
82032;SDS011;71595;52.180;4.512;2024-01-07T03:41:58;8.85;;;5.18;;
82032;SDS011;71595;52.180;4.512;2024-01-07T03:44:24;8.95;;;5.13;;
82032;SDS011;71595;52.180;4.512;2024-01-07T03:46:49;6.97;;;4.70;;
82032;SDS011;71595;52.180;4.512;2024-01-07T03:49:14;7.03;;;4.60;;
82032;SDS011;71595;52.180;4.512;2024-01-07T03:51:40;7.63;;;4.50;;
82032;SDS011;71595;52.180;4.512;2024-01-07T03:54:05;9.95;;;5.00;;
82032;SDS011;71595;52.180;4.512;2024-01-07T03:56:30;8.00;;;4.57;;
82032;SDS011;71595;52.180;4.512;2024-01-07T03:58:56;8.05;;;4.47;;
82032;SDS011;71595;52.180;4.512;2024-01-07T04:01:21;8.23;;;5.00;;
82032;SDS011;71595;52.180;4.512;2024-01-07T04:03:46;6.93;;;4.75;;
82032;SDS011;71595;52.180;4.512;2024-01-07T04:06:12;8.35;;;5.32;;
82032;SDS011;71595;52.180;4.512;2024-01-07T04:08:37;7.65;;;4.80;;
82032;SDS011;71595;52.180;4.512;2024-01-07T04:11:03;8.85;;;5.10;;
82032;SDS011;71595;52.180;4.512;2024-01-07T04:13:28;8.27;;;5.10;;
82032;SDS011;71595;52.180;4.512;2024-01-07T04:15:54;8.25;;;4.88;;
82032;SDS011;71595;52.180;4.512;2024-01-07T04:18:19;8.05;;;4.82;;
82032;SDS011;71595;52.180;4.512;2024-01-07T04:20:44;10.85;;;5.35;;
82032;SDS011;71595;52.180;4.512;2024-01-07T04:23:10;8.68;;;5.28;;
82032;SDS011;71595;52.180;4.512;2024-01-07T04:25:35;8.98;;;4.75;;
82032;SDS011;71595;52.180;4.512;2024-01-07T04:28:00;8.60;;;5.00;;
82032;SDS011;71595;52.180;4.512;2024-01-07T04:30:26;9.95;;;5.57;;
82032;SDS011;71595;52.180;4.512;2024-01-07T04:32:51;10.63;;;5.38;;
82032;SDS011;71595;52.180;4.512;2024-01-07T04:35:16;8.15;;;5.47;;
82032;SDS011;71595;52.180;4.512;2024-01-07T04:37:42;9.73;;;5.45;;
82032;SDS011;71595;52.180;4.512;2024-01-07T04:40:07;8.32;;;5.30;;
82032;SDS011;71595;52.180;4.512;2024-01-07T04:42:33;10.07;;;5.20;;
82032;SDS011;71595;52.180;4.512;2024-01-07T04:44:59;8.25;;;4.88;;
82032;SDS011;71595;52.180;4.512;2024-01-07T04:47:31;11.23;;;5.20;;
82032;SDS011;71595;52.180;4.512;2024-01-07T04:49:59;8.23;;;4.93;;
82032;SDS011;71595;52.180;4.512;2024-01-07T04:54:51;7.80;;;4.50;;
82032;SDS011;71595;52.180;4.512;2024-01-07T04:57:17;8.80;;;4.90;;
82032;SDS011;71595;52.180;4.512;2024-01-07T04:59:43;9.20;;;5.20;;
82032;SDS011;71595;52.180;4.512;2024-01-07T05:02:08;9.48;;;4.97;;
82032;SDS011;71595;52.180;4.512;2024-01-07T05:04:35;8.68;;;4.85;;
82032;SDS011;71595;52.180;4.512;2024-01-07T05:07:01;9.52;;;5.13;;
82032;SDS011;71595;52.180;4.512;2024-01-07T05:09:26;8.13;;;4.78;;
82032;SDS011;71595;52.180;4.512;2024-01-07T05:11:51;9.30;;;5.40;;
82032;SDS011;71595;52.180;4.512;2024-01-07T05:14:17;8.13;;;4.82;;
82032;SDS011;71595;52.180;4.512;2024-01-07T05:16:42;8.57;;;5.15;;
82032;SDS011;71595;52.180;4.512;2024-01-07T05:19:07;8.63;;;4.88;;
82032;SDS011;71595;52.180;4.512;2024-01-07T05:21:33;8.35;;;4.78;;
82032;SDS011;71595;52.180;4.512;2024-01-07T05:23:58;8.40;;;5.40;;
82032;SDS011;71595;52.180;4.512;2024-01-07T05:26:23;9.75;;;5.28;;
82032;SDS011;71595;52.180;4.512;2024-01-07T05:28:49;8.10;;;5.20;;
82032;SDS011;71595;52.180;4.512;2024-01-07T05:31:15;10.23;;;5.68;;
82032;SDS011;71595;52.180;4.512;2024-01-07T05:33:41;11.18;;;5.78;;
82032;SDS011;71595;52.180;4.512;2024-01-07T05:36:07;8.52;;;5.28;;
82032;SDS011;71595;52.180;4.512;2024-01-07T05:38:33;9.60;;;4.85;;
82032;SDS011;71595;52.180;4.512;2024-01-07T05:40:58;9.80;;;5.22;;
82032;SDS011;71595;52.180;4.512;2024-01-07T05:43:23;10.27;;;5.82;;
82032;SDS011;71595;52.180;4.512;2024-01-07T05:45:49;10.23;;;5.70;;
82032;SDS011;71595;52.180;4.512;2024-01-07T05:48:14;11.63;;;5.57;;
82032;SDS011;71595;52.180;4.512;2024-01-07T05:50:39;10.15;;;5.40;;
82032;SDS011;71595;52.180;4.512;2024-01-07T05:53:05;10.15;;;5.63;;
82032;SDS011;71595;52.180;4.512;2024-01-07T05:55:30;8.32;;;5.78;;
82032;SDS011;71595;52.180;4.512;2024-01-07T05:57:56;10.30;;;5.63;;
82032;SDS011;71595;52.180;4.512;2024-01-07T06:00:21;11.15;;;5.50;;
82032;SDS011;71595;52.180;4.512;2024-01-07T06:05:38;9.00;;;5.40;;
82032;SDS011;71595;52.180;4.512;2024-01-07T06:08:04;9.15;;;5.32;;
82032;SDS011;71595;52.180;4.512;2024-01-07T06:10:30;9.40;;;5.90;;
82032;SDS011;71595;52.180;4.512;2024-01-07T06:13:10;9.85;;;5.85;;
82032;SDS011;71595;52.180;4.512;2024-01-07T06:15:36;9.52;;;5.65;;
82032;SDS011;71595;52.180;4.512;2024-01-07T06:18:01;10.25;;;5.30;;
82032;SDS011;71595;52.180;4.512;2024-01-07T06:20:27;9.63;;;5.93;;
82032;SDS011;71595;52.180;4.512;2024-01-07T06:22:53;12.23;;;6.15;;
82032;SDS011;71595;52.180;4.512;2024-01-07T06:25:18;10.98;;;6.18;;
82032;SDS011;71595;52.180;4.512;2024-01-07T06:27:44;9.38;;;6.00;;
82032;SDS011;71595;52.180;4.512;2024-01-07T06:33:31;10.65;;;6.28;;
82032;SDS011;71595;52.180;4.512;2024-01-07T06:35:56;9.85;;;5.75;;
82032;SDS011;71595;52.180;4.512;2024-01-07T06:38:22;11.05;;;6.00;;
82032;SDS011;71595;52.180;4.512;2024-01-07T06:40:47;11.00;;;5.97;;
82032;SDS011;71595;52.180;4.512;2024-01-07T06:43:12;13.57;;;6.35;;
82032;SDS011;71595;52.180;4.512;2024-01-07T06:45:38;9.73;;;6.10;;
82032;SDS011;71595;52.180;4.512;2024-01-07T06:48:04;10.02;;;6.38;;
82032;SDS011;71595;52.180;4.512;2024-01-07T06:50:29;10.80;;;6.55;;
82032;SDS011;71595;52.180;4.512;2024-01-07T06:52:55;11.95;;;6.18;;
82032;SDS011;71595;52.180;4.512;2024-01-07T06:55:21;9.40;;;5.70;;
82032;SDS011;71595;52.180;4.512;2024-01-07T06:57:47;9.55;;;5.50;;
82032;SDS011;71595;52.180;4.512;2024-01-07T07:00:12;10.90;;;6.45;;
82032;SDS011;71595;52.180;4.512;2024-01-07T07:02:39;11.60;;;6.10;;
82032;SDS011;71595;52.180;4.512;2024-01-07T07:05:04;10.05;;;5.75;;
82032;SDS011;71595;52.180;4.512;2024-01-07T07:07:29;8.15;;;5.50;;
82032;SDS011;71595;52.180;4.512;2024-01-07T07:09:55;10.20;;;5.30;;
82032;SDS011;71595;52.180;4.512;2024-01-07T07:12:20;10.88;;;5.78;;
82032;SDS011;71595;52.180;4.512;2024-01-07T07:14:45;9.25;;;5.53;;
82032;SDS011;71595;52.180;4.512;2024-01-07T07:17:12;7.65;;;5.22;;
82032;SDS011;71595;52.180;4.512;2024-01-07T07:19:38;9.73;;;5.57;;
82032;SDS011;71595;52.180;4.512;2024-01-07T07:22:03;8.77;;;5.30;;
82032;SDS011;71595;52.180;4.512;2024-01-07T07:24:29;8.57;;;4.63;;
82032;SDS011;71595;52.180;4.512;2024-01-07T07:26:54;8.48;;;4.65;;
82032;SDS011;71595;52.180;4.512;2024-01-07T07:29:20;7.05;;;4.65;;
82032;SDS011;71595;52.180;4.512;2024-01-07T07:31:45;7.35;;;4.88;;
82032;SDS011;71595;52.180;4.512;2024-01-07T07:34:10;9.68;;;4.97;;
82032;SDS011;71595;52.180;4.512;2024-01-07T07:36:37;7.63;;;4.43;;
82032;SDS011;71595;52.180;4.512;2024-01-07T07:39:02;8.60;;;4.43;;
82032;SDS011;71595;52.180;4.512;2024-01-07T07:41:27;6.78;;;4.10;;
82032;SDS011;71595;52.180;4.512;2024-01-07T07:43:53;7.55;;;4.30;;
82032;SDS011;71595;52.180;4.512;2024-01-07T07:46:19;8.98;;;4.63;;
82032;SDS011;71595;52.180;4.512;2024-01-07T07:48:45;7.57;;;4.50;;
82032;SDS011;71595;52.180;4.512;2024-01-07T07:51:10;6.75;;;4.10;;
82032;SDS011;71595;52.180;4.512;2024-01-07T07:53:37;7.90;;;4.63;;
82032;SDS011;71595;52.180;4.512;2024-01-07T07:56:05;6.90;;;4.45;;
82032;SDS011;71595;52.180;4.512;2024-01-07T08:00:56;6.97;;;4.07;;
82032;SDS011;71595;52.180;4.512;2024-01-07T08:03:21;7.40;;;3.78;;
82032;SDS011;71595;52.180;4.512;2024-01-07T08:05:47;7.22;;;4.00;;
82032;SDS011;71595;52.180;4.512;2024-01-07T08:08:12;7.97;;;4.38;;
82032;SDS011;71595;52.180;4.512;2024-01-07T08:10:37;7.30;;;4.90;;
82032;SDS011;71595;52.180;4.512;2024-01-07T08:13:03;5.78;;;4.10;;
82032;SDS011;71595;52.180;4.512;2024-01-07T08:15:28;7.03;;;4.28;;
82032;SDS011;71595;52.180;4.512;2024-01-07T08:17:53;10.27;;;4.97;;
82032;SDS011;71595;52.180;4.512;2024-01-07T08:20:19;8.82;;;4.28;;
82032;SDS011;71595;52.180;4.512;2024-01-07T08:22:44;7.20;;;3.90;;
82032;SDS011;71595;52.180;4.512;2024-01-07T08:25:10;9.60;;;4.20;;
82032;SDS011;71595;52.180;4.512;2024-01-07T08:27:36;8.75;;;4.35;;
82032;SDS011;71595;52.180;4.512;2024-01-07T08:30:02;6.95;;;4.53;;
82032;SDS011;71595;52.180;4.512;2024-01-07T08:32:29;6.28;;;3.92;;
82032;SDS011;71595;52.180;4.512;2024-01-07T08:34:54;7.88;;;3.95;;
82032;SDS011;71595;52.180;4.512;2024-01-07T08:37:19;8.60;;;5.22;;
82032;SDS011;71595;52.180;4.512;2024-01-07T08:39:45;6.60;;;4.32;;
82032;SDS011;71595;52.180;4.512;2024-01-07T08:42:10;5.75;;;3.58;;
82032;SDS011;71595;52.180;4.512;2024-01-07T08:44:35;5.85;;;3.85;;
82032;SDS011;71595;52.180;4.512;2024-01-07T08:47:01;6.53;;;3.50;;
82032;SDS011;71595;52.180;4.512;2024-01-07T08:49:30;7.97;;;4.25;;
82032;SDS011;71595;52.180;4.512;2024-01-07T08:51:57;6.82;;;3.55;;
82032;SDS011;71595;52.180;4.512;2024-01-07T08:54:23;6.22;;;3.75;;
82032;SDS011;71595;52.180;4.512;2024-01-07T08:56:48;6.53;;;3.55;;
82032;SDS011;71595;52.180;4.512;2024-01-07T08:59:14;5.13;;;3.70;;
82032;SDS011;71595;52.180;4.512;2024-01-07T09:01:39;7.28;;;3.67;;
82032;SDS011;71595;52.180;4.512;2024-01-07T09:04:06;6.20;;;3.83;;
82032;SDS011;71595;52.180;4.512;2024-01-07T09:06:31;7.07;;;3.90;;
82032;SDS011;71595;52.180;4.512;2024-01-07T09:08:57;6.15;;;3.53;;
82032;SDS011;71595;52.180;4.512;2024-01-07T09:11:22;6.55;;;3.65;;
82032;SDS011;71595;52.180;4.512;2024-01-07T09:13:49;6.97;;;4.45;;
82032;SDS011;71595;52.180;4.512;2024-01-07T09:16:15;5.78;;;3.70;;
82032;SDS011;71595;52.180;4.512;2024-01-07T09:18:40;6.80;;;3.67;;
82032;SDS011;71595;52.180;4.512;2024-01-07T09:21:06;6.90;;;4.30;;
82032;SDS011;71595;52.180;4.512;2024-01-07T09:23:35;6.38;;;3.58;;
82032;SDS011;71595;52.180;4.512;2024-01-07T09:26:01;5.65;;;3.60;;
82032;SDS011;71595;52.180;4.512;2024-01-07T09:28:27;6.03;;;3.10;;
82032;SDS011;71595;52.180;4.512;2024-01-07T09:30:52;4.50;;;3.50;;
82032;SDS011;71595;52.180;4.512;2024-01-07T09:33:17;5.97;;;3.80;;
82032;SDS011;71595;52.180;4.512;2024-01-07T09:35:45;7.80;;;4.32;;
82032;SDS011;71595;52.180;4.512;2024-01-07T09:38:10;7.97;;;4.20;;
82032;SDS011;71595;52.180;4.512;2024-01-07T09:40:37;6.93;;;4.10;;
82032;SDS011;71595;52.180;4.512;2024-01-07T09:43:03;6.85;;;3.53;;
82032;SDS011;71595;52.180;4.512;2024-01-07T09:45:29;7.03;;;3.88;;
82032;SDS011;71595;52.180;4.512;2024-01-07T09:47:55;6.32;;;3.55;;
82032;SDS011;71595;52.180;4.512;2024-01-07T09:50:21;5.38;;;3.28;;
82032;SDS011;71595;52.180;4.512;2024-01-07T09:52:47;5.90;;;3.35;;
82032;SDS011;71595;52.180;4.512;2024-01-07T09:57:44;5.80;;;3.22;;
82032;SDS011;71595;52.180;4.512;2024-01-07T10:00:10;5.38;;;2.90;;
82032;SDS011;71595;52.180;4.512;2024-01-07T10:02:37;5.80;;;3.30;;
82032;SDS011;71595;52.180;4.512;2024-01-07T10:05:02;4.90;;;3.15;;
82032;SDS011;71595;52.180;4.512;2024-01-07T10:07:28;6.40;;;3.35;;
82032;SDS011;71595;52.180;4.512;2024-01-07T10:09:53;6.38;;;3.50;;
82032;SDS011;71595;52.180;4.512;2024-01-07T10:12:24;5.75;;;3.03;;
82032;SDS011;71595;52.180;4.512;2024-01-07T10:14:49;6.03;;;3.20;;
82032;SDS011;71595;52.180;4.512;2024-01-07T10:20:36;5.22;;;3.20;;
82032;SDS011;71595;52.180;4.512;2024-01-07T10:23:03;5.82;;;3.30;;
82032;SDS011;71595;52.180;4.512;2024-01-07T10:25:32;6.93;;;3.40;;
82032;SDS011;71595;52.180;4.512;2024-01-07T10:28:01;3.92;;;2.63;;
82032;SDS011;71595;52.180;4.512;2024-01-07T10:30:27;5.22;;;2.80;;
82032;SDS011;71595;52.180;4.512;2024-01-07T10:32:55;5.28;;;2.88;;
82032;SDS011;71595;52.180;4.512;2024-01-07T10:35:22;6.70;;;3.17;;
82032;SDS011;71595;52.180;4.512;2024-01-07T10:37:58;5.13;;;2.55;;
82032;SDS011;71595;52.180;4.512;2024-01-07T10:40:24;5.85;;;2.75;;
82032;SDS011;71595;52.180;4.512;2024-01-07T10:42:52;4.25;;;2.65;;
82032;SDS011;71595;52.180;4.512;2024-01-07T10:45:19;4.85;;;3.08;;
82032;SDS011;71595;52.180;4.512;2024-01-07T10:47:45;4.68;;;2.70;;
82032;SDS011;71595;52.180;4.512;2024-01-07T10:50:15;4.03;;;2.83;;
82032;SDS011;71595;52.180;4.512;2024-01-07T10:52:42;4.15;;;2.70;;
82032;SDS011;71595;52.180;4.512;2024-01-07T10:55:08;5.38;;;2.75;;
82032;SDS011;71595;52.180;4.512;2024-01-07T11:00:07;8.13;;;2.88;;
82032;SDS011;71595;52.180;4.512;2024-01-07T11:02:39;4.22;;;2.35;;
82032;SDS011;71595;52.180;4.512;2024-01-07T11:05:17;4.30;;;2.47;;
82032;SDS011;71595;52.180;4.512;2024-01-07T11:08:08;5.07;;;2.55;;
82032;SDS011;71595;52.180;4.512;2024-01-07T11:10:48;4.03;;;2.40;;
82032;SDS011;71595;52.180;4.512;2024-01-07T11:13:37;4.60;;;2.58;;
82032;SDS011;71595;52.180;4.512;2024-01-07T11:16:03;4.05;;;2.40;;
82032;SDS011;71595;52.180;4.512;2024-01-07T11:18:46;3.17;;;2.28;;
82032;SDS011;71595;52.180;4.512;2024-01-07T11:21:23;5.07;;;2.55;;
82032;SDS011;71595;52.180;4.512;2024-01-07T11:23:52;6.30;;;2.25;;
82032;SDS011;71595;52.180;4.512;2024-01-07T11:26:18;3.47;;;2.15;;
82032;SDS011;71595;52.180;4.512;2024-01-07T11:28:58;3.47;;;2.35;;
82032;SDS011;71595;52.180;4.512;2024-01-07T11:31:43;4.25;;;2.63;;
82032;SDS011;71595;52.180;4.512;2024-01-07T11:34:15;4.13;;;2.17;;
82032;SDS011;71595;52.180;4.512;2024-01-07T11:37:04;3.97;;;2.25;;
82032;SDS011;71595;52.180;4.512;2024-01-07T11:39:34;3.55;;;2.08;;
82032;SDS011;71595;52.180;4.512;2024-01-07T11:42:01;4.00;;;2.45;;
82032;SDS011;71595;52.180;4.512;2024-01-07T11:44:28;3.97;;;2.40;;
82032;SDS011;71595;52.180;4.512;2024-01-07T11:46:55;5.63;;;2.10;;
82032;SDS011;71595;52.180;4.512;2024-01-07T11:49:21;4.28;;;2.25;;
82032;SDS011;71595;52.180;4.512;2024-01-07T11:51:46;4.15;;;2.03;;
82032;SDS011;71595;52.180;4.512;2024-01-07T11:54:12;4.03;;;2.10;;
82032;SDS011;71595;52.180;4.512;2024-01-07T11:56:37;5.13;;;2.65;;
82032;SDS011;71595;52.180;4.512;2024-01-07T11:59:05;3.90;;;2.13;;
82032;SDS011;71595;52.180;4.512;2024-01-07T12:01:31;3.30;;;1.95;;
82032;SDS011;71595;52.180;4.512;2024-01-07T12:03:56;3.97;;;2.13;;
82032;SDS011;71595;52.180;4.512;2024-01-07T12:06:22;3.95;;;2.25;;
82032;SDS011;71595;52.180;4.512;2024-01-07T12:08:47;3.72;;;2.30;;
82032;SDS011;71595;52.180;4.512;2024-01-07T12:11:13;4.13;;;2.25;;
82032;SDS011;71595;52.180;4.512;2024-01-07T12:13:39;3.28;;;1.88;;
82032;SDS011;71595;52.180;4.512;2024-01-07T12:16:06;3.42;;;1.90;;
82032;SDS011;71595;52.180;4.512;2024-01-07T12:18:33;3.92;;;2.20;;
82032;SDS011;71595;52.180;4.512;2024-01-07T12:20:59;3.70;;;2.20;;
82032;SDS011;71595;52.180;4.512;2024-01-07T12:23:28;6.03;;;2.13;;
82032;SDS011;71595;52.180;4.512;2024-01-07T12:25:53;3.40;;;1.60;;
82032;SDS011;71595;52.180;4.512;2024-01-07T12:28:20;2.92;;;1.73;;
82032;SDS011;71595;52.180;4.512;2024-01-07T12:30:49;3.40;;;1.80;;
82032;SDS011;71595;52.180;4.512;2024-01-07T12:33:18;2.42;;;1.48;;
82032;SDS011;71595;52.180;4.512;2024-01-07T12:35:45;2.75;;;1.50;;
82032;SDS011;71595;52.180;4.512;2024-01-07T12:38:11;4.00;;;2.10;;
82032;SDS011;71595;52.180;4.512;2024-01-07T12:40:37;3.50;;;1.50;;
82032;SDS011;71595;52.180;4.512;2024-01-07T12:43:02;3.17;;;1.85;;
82032;SDS011;71595;52.180;4.512;2024-01-07T12:45:28;2.28;;;1.42;;
82032;SDS011;71595;52.180;4.512;2024-01-07T12:47:53;2.47;;;1.55;;
82032;SDS011;71595;52.180;4.512;2024-01-07T12:50:23;2.55;;;1.60;;
82032;SDS011;71595;52.180;4.512;2024-01-07T12:52:53;3.33;;;1.58;;
82032;SDS011;71595;52.180;4.512;2024-01-07T12:55:18;2.58;;;1.63;;
82032;SDS011;71595;52.180;4.512;2024-01-07T12:57:43;2.33;;;1.40;;
82032;SDS011;71595;52.180;4.512;2024-01-07T13:00:09;2.15;;;1.50;;
82032;SDS011;71595;52.180;4.512;2024-01-07T13:02:34;2.00;;;1.40;;
82032;SDS011;71595;52.180;4.512;2024-01-07T13:05:00;2.28;;;1.30;;
82032;SDS011;71595;52.180;4.512;2024-01-07T13:07:27;2.80;;;1.45;;
82032;SDS011;71595;52.180;4.512;2024-01-07T13:09:53;2.45;;;1.55;;
82032;SDS011;71595;52.180;4.512;2024-01-07T13:12:18;2.83;;;1.50;;
82032;SDS011;71595;52.180;4.512;2024-01-07T13:14:44;2.10;;;1.38;;
82032;SDS011;71595;52.180;4.512;2024-01-07T13:17:11;2.55;;;1.58;;
82032;SDS011;71595;52.180;4.512;2024-01-07T13:19:37;2.30;;;1.50;;
82032;SDS011;71595;52.180;4.512;2024-01-07T13:22:02;2.65;;;1.60;;
82032;SDS011;71595;52.180;4.512;2024-01-07T13:24:28;3.10;;;1.30;;
82032;SDS011;71595;52.180;4.512;2024-01-07T13:26:53;2.55;;;1.60;;
82032;SDS011;71595;52.180;4.512;2024-01-07T13:29:19;3.42;;;1.30;;
82032;SDS011;71595;52.180;4.512;2024-01-07T13:31:44;3.65;;;1.60;;
82032;SDS011;71595;52.180;4.512;2024-01-07T13:34:09;2.30;;;1.20;;
82032;SDS011;71595;52.180;4.512;2024-01-07T13:36:35;2.60;;;1.20;;
82032;SDS011;71595;52.180;4.512;2024-01-07T13:39:00;2.03;;;1.33;;
82032;SDS011;71595;52.180;4.512;2024-01-07T13:41:26;2.17;;;1.10;;
82032;SDS011;71595;52.180;4.512;2024-01-07T13:43:57;3.42;;;1.42;;
82032;SDS011;71595;52.180;4.512;2024-01-07T13:46:22;2.97;;;1.10;;
82032;SDS011;71595;52.180;4.512;2024-01-07T13:48:50;2.70;;;1.20;;
82032;SDS011;71595;52.180;4.512;2024-01-07T13:51:16;3.88;;;1.70;;
82032;SDS011;71595;52.180;4.512;2024-01-07T13:53:44;2.78;;;1.35;;
82032;SDS011;71595;52.180;4.512;2024-01-07T13:56:11;2.05;;;1.27;;
82032;SDS011;71595;52.180;4.512;2024-01-07T13:58:37;3.65;;;1.50;;
82032;SDS011;71595;52.180;4.512;2024-01-07T14:01:02;3.88;;;1.40;;
82032;SDS011;71595;52.180;4.512;2024-01-07T14:03:28;2.50;;;1.20;;
82032;SDS011;71595;52.180;4.512;2024-01-07T14:05:55;2.35;;;1.30;;
82032;SDS011;71595;52.180;4.512;2024-01-07T14:08:21;2.50;;;1.20;;
82032;SDS011;71595;52.180;4.512;2024-01-07T14:10:46;2.58;;;1.40;;
82032;SDS011;71595;52.180;4.512;2024-01-07T14:13:13;2.03;;;1.50;;
82032;SDS011;71595;52.180;4.512;2024-01-07T14:15:38;1.95;;;1.27;;
82032;SDS011;71595;52.180;4.512;2024-01-07T14:18:04;2.58;;;1.50;;
82032;SDS011;71595;52.180;4.512;2024-01-07T14:20:29;4.57;;;1.48;;
82032;SDS011;71595;52.180;4.512;2024-01-07T14:22:54;5.47;;;1.60;;
82032;SDS011;71595;52.180;4.512;2024-01-07T14:25:20;3.17;;;1.48;;
82032;SDS011;71595;52.180;4.512;2024-01-07T14:27:45;3.15;;;1.50;;
82032;SDS011;71595;52.180;4.512;2024-01-07T14:30:11;2.35;;;1.45;;
82032;SDS011;71595;52.180;4.512;2024-01-07T14:32:38;2.33;;;1.30;;
82032;SDS011;71595;52.180;4.512;2024-01-07T14:37:29;3.05;;;1.50;;
82032;SDS011;71595;52.180;4.512;2024-01-07T14:39:55;2.45;;;1.02;;
82032;SDS011;71595;52.180;4.512;2024-01-07T14:42:20;4.20;;;1.17;;
82032;SDS011;71595;52.180;4.512;2024-01-07T14:44:45;1.55;;;0.90;;
82032;SDS011;71595;52.180;4.512;2024-01-07T14:47:11;2.42;;;1.45;;
82032;SDS011;71595;52.180;4.512;2024-01-07T14:49:36;2.78;;;1.30;;
82032;SDS011;71595;52.180;4.512;2024-01-07T14:52:01;2.60;;;1.40;;
82032;SDS011;71595;52.180;4.512;2024-01-07T14:54:27;2.08;;;1.20;;
82032;SDS011;71595;52.180;4.512;2024-01-07T14:56:52;2.83;;;1.40;;
82032;SDS011;71595;52.180;4.512;2024-01-07T14:59:17;1.40;;;1.20;;
82032;SDS011;71595;52.180;4.512;2024-01-07T15:01:43;1.98;;;0.95;;
82032;SDS011;71595;52.180;4.512;2024-01-07T15:04:09;3.05;;;1.25;;